sensor_id;sensor_type;location;lat;lon;timestamp;pressure;altitude;pressure_sealevel;temperature;humidity
13241;BME280;6687;47.790;7.322;2023-08-08T05:24:37;99229.91;;;14.93;66.67
13241;BME280;6687;47.790;7.322;2023-08-08T05:27:04;99220.16;;;15.09;65.96
13241;BME280;6687;47.790;7.322;2023-08-08T05:29:31;99230.56;;;15.12;65.93
13241;BME280;6687;47.790;7.322;2023-08-08T05:31:58;99226.88;;;15.28;65.17
13241;BME280;6687;47.790;7.322;2023-08-08T05:34:24;99228.56;;;15.32;65.68
13241;BME280;6687;47.790;7.322;2023-08-08T05:36:51;99220.78;;;15.28;65.88
13241;BME280;6687;47.790;7.322;2023-08-08T05:39:18;99217.91;;;15.48;64.31
13241;BME280;6687;47.790;7.322;2023-08-08T05:41:46;99225.59;;;15.59;63.94
13241;BME280;6687;47.790;7.322;2023-08-08T05:44:13;99222.88;;;15.63;63.75
13241;BME280;6687;47.790;7.322;2023-08-08T05:46:39;99215.72;;;15.79;62.91
13241;BME280;6687;47.790;7.322;2023-08-08T05:49:06;99211.19;;;15.90;62.18
13241;BME280;6687;47.790;7.322;2023-08-08T05:51:33;99212.88;;;15.95;62.38
13241;BME280;6687;47.790;7.322;2023-08-08T05:53:59;99211.91;;;16.00;62.01
13241;BME280;6687;47.790;7.322;2023-08-08T05:56:27;99213.59;;;16.04;62.69
13241;BME280;6687;47.790;7.322;2023-08-08T05:59:01;99223.00;;;16.16;61.49
13241;BME280;6687;47.790;7.322;2023-08-08T06:01:29;99222.09;;;16.17;61.92
13241;BME280;6687;47.790;7.322;2023-08-08T06:03:55;99220.16;;;16.30;61.79
13241;BME280;6687;47.790;7.322;2023-08-08T06:06:23;99215.66;;;16.37;60.94
13241;BME280;6687;47.790;7.322;2023-08-08T06:08:50;99217.19;;;16.48;60.47
13241;BME280;6687;47.790;7.322;2023-08-08T06:11:17;99224.06;;;16.56;60.31
13241;BME280;6687;47.790;7.322;2023-08-08T06:13:44;99235.22;;;16.64;60.71
13241;BME280;6687;47.790;7.322;2023-08-08T06:16:12;99226.38;;;16.71;60.24
13241;BME280;6687;47.790;7.322;2023-08-08T06:18:38;99224.50;;;16.79;60.25
13241;BME280;6687;47.790;7.322;2023-08-08T06:21:05;99224.31;;;16.90;59.83
13241;BME280;6687;47.790;7.322;2023-08-08T06:23:32;99216.41;;;16.93;59.45
13241;BME280;6687;47.790;7.322;2023-08-08T06:25:59;99221.09;;;17.19;58.43
13241;BME280;6687;47.790;7.322;2023-08-08T06:28:25;99218.13;;;17.35;57.79
13241;BME280;6687;47.790;7.322;2023-08-08T06:30:52;99212.44;;;17.56;56.98
13241;BME280;6687;47.790;7.322;2023-08-08T06:33:20;99205.25;;;17.64;56.88
13241;BME280;6687;47.790;7.322;2023-08-08T06:35:47;99211.09;;;17.77;57.17
13241;BME280;6687;47.790;7.322;2023-08-08T06:38:13;99214.22;;;17.95;55.98
13241;BME280;6687;47.790;7.322;2023-08-08T06:40:40;99215.50;;;18.13;56.20
13241;BME280;6687;47.790;7.322;2023-08-08T06:43:07;99213.75;;;18.13;56.22
13241;BME280;6687;47.790;7.322;2023-08-08T06:45:33;99213.06;;;18.41;55.01
13241;BME280;6687;47.790;7.322;2023-08-08T06:48:01;99210.13;;;18.52;55.10
13241;BME280;6687;47.790;7.322;2023-08-08T06:50:29;99208.81;;;18.68;54.87
13241;BME280;6687;47.790;7.322;2023-08-08T06:52:56;99211.28;;;18.74;54.98
13241;BME280;6687;47.790;7.322;2023-08-08T06:55:23;99217.88;;;18.91;53.50
13241;BME280;6687;47.790;7.322;2023-08-08T06:57:49;99214.13;;;18.98;53.29
13241;BME280;6687;47.790;7.322;2023-08-08T07:00:16;99212.81;;;19.14;53.10
13241;BME280;6687;47.790;7.322;2023-08-08T07:02:43;99214.91;;;19.33;52.92
13241;BME280;6687;47.790;7.322;2023-08-08T07:05:10;99216.34;;;19.43;52.51
13241;BME280;6687;47.790;7.322;2023-08-08T07:07:38;99211.47;;;19.59;52.44
13241;BME280;6687;47.790;7.322;2023-08-08T07:10:05;99211.59;;;19.56;51.58
13241;BME280;6687;47.790;7.322;2023-08-08T07:12:32;99207.59;;;19.72;51.28
13241;BME280;6687;47.790;7.322;2023-08-08T07:14:59;99203.41;;;19.93;51.07
13241;BME280;6687;47.790;7.322;2023-08-08T07:17:25;99202.09;;;20.06;50.72
13241;BME280;6687;47.790;7.322;2023-08-08T07:19:52;99195.56;;;20.18;51.14
13241;BME280;6687;47.790;7.322;2023-08-08T07:22:19;99197.69;;;20.07;50.25
13241;BME280;6687;47.790;7.322;2023-08-08T07:24:47;99196.22;;;20.25;50.19
13241;BME280;6687;47.790;7.322;2023-08-08T07:27:14;99195.59;;;20.43;49.70
13241;BME280;6687;47.790;7.322;2023-08-08T07:29:40;99200.28;;;20.35;49.95
13241;BME280;6687;47.790;7.322;2023-08-08T07:32:08;99196.25;;;20.50;49.48
13241;BME280;6687;47.790;7.322;2023-08-08T07:34:34;99195.66;;;20.67;49.11
13241;BME280;6687;47.790;7.322;2023-08-08T07:37:02;99196.41;;;20.45;49.67
13241;BME280;6687;47.790;7.322;2023-08-08T07:39:29;99209.75;;;20.66;49.11
13241;BME280;6687;47.790;7.322;2023-08-08T07:41:57;99198.19;;;20.70;49.09
13241;BME280;6687;47.790;7.322;2023-08-08T07:44:24;99197.47;;;20.90;49.46
13241;BME280;6687;47.790;7.322;2023-08-08T07:46:50;99194.75;;;20.93;48.68
13241;BME280;6687;47.790;7.322;2023-08-08T07:49:17;99200.41;;;21.06;48.52
13241;BME280;6687;47.790;7.322;2023-08-08T07:51:44;99198.09;;;21.20;48.43
13241;BME280;6687;47.790;7.322;2023-08-08T07:54:11;99190.19;;;21.20;48.03
13241;BME280;6687;47.790;7.322;2023-08-08T07:56:37;99194.91;;;21.12;48.26
13241;BME280;6687;47.790;7.322;2023-08-08T07:59:05;99187.56;;;21.20;48.58
13241;BME280;6687;47.790;7.322;2023-08-08T08:01:32;99185.63;;;21.25;48.30
13241;BME280;6687;47.790;7.322;2023-08-08T08:03:59;99181.94;;;21.30;48.35
13241;BME280;6687;47.790;7.322;2023-08-08T08:06:26;99179.63;;;21.45;47.90
13241;BME280;6687;47.790;7.322;2023-08-08T08:08:52;99180.13;;;21.55;48.08
13241;BME280;6687;47.790;7.322;2023-08-08T08:11:19;99176.22;;;21.86;47.67
13241;BME280;6687;47.790;7.322;2023-08-08T08:13:46;99171.09;;;21.83;47.29
13241;BME280;6687;47.790;7.322;2023-08-08T08:16:16;99170.44;;;21.98;47.28
13241;BME280;6687;47.790;7.322;2023-08-08T08:18:43;99173.50;;;22.10;47.55
13241;BME280;6687;47.790;7.322;2023-08-08T08:21:10;99171.03;;;22.27;47.50
13241;BME280;6687;47.790;7.322;2023-08-08T08:23:38;99169.84;;;22.55;46.72
13241;BME280;6687;47.790;7.322;2023-08-08T08:26:05;99168.28;;;22.51;47.30
13241;BME280;6687;47.790;7.322;2023-08-08T08:28:32;99168.78;;;22.59;46.98
13241;BME280;6687;47.790;7.322;2023-08-08T08:31:04;99172.59;;;23.12;44.06
13241;BME280;6687;47.790;7.322;2023-08-08T08:33:32;99158.06;;;23.58;44.79
13241;BME280;6687;47.790;7.322;2023-08-08T08:35:58;99169.59;;;23.19;45.76
13241;BME280;6687;47.790;7.322;2023-08-08T08:38:25;99166.91;;;23.57;45.90
13241;BME280;6687;47.790;7.322;2023-08-08T08:40:54;99164.31;;;24.11;43.45
13241;BME280;6687;47.790;7.322;2023-08-08T08:43:22;99163.59;;;24.42;42.04
13241;BME280;6687;47.790;7.322;2023-08-08T08:45:52;99157.66;;;24.72;42.80
13241;BME280;6687;47.790;7.322;2023-08-08T08:48:20;99154.97;;;24.90;43.06
13241;BME280;6687;47.790;7.322;2023-08-08T08:50:49;99159.41;;;24.89;43.33
13241;BME280;6687;47.790;7.322;2023-08-08T08:53:16;99155.41;;;24.65;43.73
13241;BME280;6687;47.790;7.322;2023-08-08T08:55:44;99155.69;;;25.09;43.53
13241;BME280;6687;47.790;7.322;2023-08-08T08:58:13;99156.28;;;24.48;44.48
13241;BME280;6687;47.790;7.322;2023-08-08T09:00:40;99157.81;;;25.18;40.85
13241;BME280;6687;47.790;7.322;2023-08-08T09:03:08;99158.97;;;25.30;43.48
13241;BME280;6687;47.790;7.322;2023-08-08T09:05:35;99163.31;;;25.15;43.89
13241;BME280;6687;47.790;7.322;2023-08-08T09:08:05;99156.13;;;25.65;42.88
13241;BME280;6687;47.790;7.322;2023-08-08T09:10:31;99144.63;;;25.96;39.22
13241;BME280;6687;47.790;7.322;2023-08-08T09:13:00;99152.28;;;25.71;43.54
13241;BME280;6687;47.790;7.322;2023-08-08T09:15:30;99156.09;;;26.27;37.82
13241;BME280;6687;47.790;7.322;2023-08-08T09:17:57;99149.78;;;26.14;40.27
13241;BME280;6687;47.790;7.322;2023-08-08T09:20:25;99150.78;;;26.27;42.95
13241;BME280;6687;47.790;7.322;2023-08-08T09:22:53;99149.09;;;26.26;42.31
13241;BME280;6687;47.790;7.322;2023-08-08T09:25:21;99140.22;;;26.26;42.91
13241;BME280;6687;47.790;7.322;2023-08-08T09:27:50;99144.44;;;25.84;42.37
13241;BME280;6687;47.790;7.322;2023-08-08T09:30:17;99150.41;;;26.33;41.34
13241;BME280;6687;47.790;7.322;2023-08-08T09:32:43;99137.50;;;26.56;40.53
13241;BME280;6687;47.790;7.322;2023-08-08T09:35:10;99140.41;;;26.67;40.35
13241;BME280;6687;47.790;7.322;2023-08-08T09:37:37;99137.13;;;26.48;35.94
13241;BME280;6687;47.790;7.322;2023-08-08T09:40:06;99129.31;;;26.75;35.23
13241;BME280;6687;47.790;7.322;2023-08-08T09:42:35;99135.69;;;26.72;41.26
13241;BME280;6687;47.790;7.322;2023-08-08T09:45:02;99132.34;;;26.83;37.42
13241;BME280;6687;47.790;7.322;2023-08-08T09:47:29;99127.88;;;26.69;41.10
13241;BME280;6687;47.790;7.322;2023-08-08T09:49:59;99119.47;;;27.33;37.44
13241;BME280;6687;47.790;7.322;2023-08-08T09:52:27;99120.38;;;27.46;35.14
13241;BME280;6687;47.790;7.322;2023-08-08T09:54:55;99111.53;;;26.90;33.58
13241;BME280;6687;47.790;7.322;2023-08-08T09:57:22;99117.16;;;27.41;39.14
13241;BME280;6687;47.790;7.322;2023-08-08T09:59:52;99111.91;;;27.40;34.53
13241;BME280;6687;47.790;7.322;2023-08-08T10:02:19;99100.25;;;27.42;37.86
13241;BME280;6687;47.790;7.322;2023-08-08T10:04:47;99101.66;;;27.48;39.17
13241;BME280;6687;47.790;7.322;2023-08-08T10:07:14;99105.03;;;27.77;39.86
13241;BME280;6687;47.790;7.322;2023-08-08T10:09:42;99104.91;;;27.66;33.95
13241;BME280;6687;47.790;7.322;2023-08-08T10:12:10;99099.59;;;27.66;34.92
13241;BME280;6687;47.790;7.322;2023-08-08T10:14:41;99095.75;;;27.70;39.14
13241;BME280;6687;47.790;7.322;2023-08-08T10:17:13;99091.34;;;27.29;40.61
13241;BME280;6687;47.790;7.322;2023-08-08T10:19:40;99092.81;;;27.87;37.50
13241;BME280;6687;47.790;7.322;2023-08-08T10:22:20;99091.56;;;27.93;37.78
13241;BME280;6687;47.790;7.322;2023-08-08T10:24:47;99096.06;;;28.31;33.83
13241;BME280;6687;47.790;7.322;2023-08-08T10:27:14;99091.47;;;28.33;31.52
13241;BME280;6687;47.790;7.322;2023-08-08T10:29:53;99099.81;;;28.28;31.55
13241;BME280;6687;47.790;7.322;2023-08-08T10:32:24;99103.31;;;28.16;31.24
13241;BME280;6687;47.790;7.322;2023-08-08T10:34:55;99097.88;;;27.92;29.50
13241;BME280;6687;47.790;7.322;2023-08-08T10:37:22;99097.03;;;27.77;30.28
13241;BME280;6687;47.790;7.322;2023-08-08T10:39:53;99099.50;;;28.20;30.60
13241;BME280;6687;47.790;7.322;2023-08-08T10:42:22;99093.50;;;28.16;31.84
13241;BME280;6687;47.790;7.322;2023-08-08T10:44:51;99091.38;;;27.96;30.64
13241;BME280;6687;47.790;7.322;2023-08-08T10:47:23;99088.28;;;28.15;30.47
13241;BME280;6687;47.790;7.322;2023-08-08T10:49:58;99098.59;;;27.94;36.08
13241;BME280;6687;47.790;7.322;2023-08-08T10:52:26;99090.19;;;28.13;34.69
13241;BME280;6687;47.790;7.322;2023-08-08T10:54:53;99087.59;;;28.51;33.34
13241;BME280;6687;47.790;7.322;2023-08-08T10:57:24;99091.19;;;28.50;29.14
13241;BME280;6687;47.790;7.322;2023-08-08T10:59:52;99093.50;;;28.16;29.95
13241;BME280;6687;47.790;7.322;2023-08-08T11:02:19;99085.19;;;28.47;30.30
13241;BME280;6687;47.790;7.322;2023-08-08T11:04:47;99089.44;;;28.88;30.19
13241;BME280;6687;47.790;7.322;2023-08-08T11:07:14;99091.91;;;28.78;29.23
13241;BME280;6687;47.790;7.322;2023-08-08T11:09:42;99081.53;;;28.99;30.49
13241;BME280;6687;47.790;7.322;2023-08-08T11:12:13;99086.69;;;28.76;29.22
13241;BME280;6687;47.790;7.322;2023-08-08T11:14:40;99081.38;;;28.51;31.10
13241;BME280;6687;47.790;7.322;2023-08-08T11:17:07;99078.66;;;29.26;32.49
13241;BME280;6687;47.790;7.322;2023-08-08T11:19:39;99074.53;;;29.46;31.18
13241;BME280;6687;47.790;7.322;2023-08-08T11:22:10;99078.56;;;29.28;31.81
13241;BME280;6687;47.790;7.322;2023-08-08T11:24:38;99069.13;;;29.59;32.82
13241;BME280;6687;47.790;7.322;2023-08-08T11:27:05;99078.47;;;29.29;32.19
13241;BME280;6687;47.790;7.322;2023-08-08T11:29:33;99081.28;;;29.63;33.67
13241;BME280;6687;47.790;7.322;2023-08-08T11:32:00;99078.09;;;29.58;33.09
13241;BME280;6687;47.790;7.322;2023-08-08T11:34:31;99078.44;;;29.53;28.65
13241;BME280;6687;47.790;7.322;2023-08-08T11:36:59;99090.50;;;29.59;33.16
13241;BME280;6687;47.790;7.322;2023-08-08T11:39:29;99078.50;;;29.65;32.06
13241;BME280;6687;47.790;7.322;2023-08-08T11:41:56;99075.44;;;29.34;29.13
13241;BME280;6687;47.790;7.322;2023-08-08T11:44:24;99077.31;;;29.08;28.76
13241;BME280;6687;47.790;7.322;2023-08-08T11:46:52;99084.34;;;29.70;29.06
13241;BME280;6687;47.790;7.322;2023-08-08T11:49:19;99075.69;;;29.31;27.94
13241;BME280;6687;47.790;7.322;2023-08-08T11:51:47;99072.72;;;30.06;32.06
13241;BME280;6687;47.790;7.322;2023-08-08T11:54:14;99073.56;;;29.71;27.89
13241;BME280;6687;47.790;7.322;2023-08-08T11:56:43;99072.72;;;30.18;29.16
13241;BME280;6687;47.790;7.322;2023-08-08T11:59:11;99070.88;;;30.18;31.50
13241;BME280;6687;47.790;7.322;2023-08-08T12:01:37;99070.47;;;30.36;31.47
13241;BME280;6687;47.790;7.322;2023-08-08T12:04:05;99067.31;;;30.30;29.73
13241;BME280;6687;47.790;7.322;2023-08-08T12:06:33;99068.66;;;30.59;30.26
13241;BME280;6687;47.790;7.322;2023-08-08T12:09:02;99068.19;;;30.42;27.81
13241;BME280;6687;47.790;7.322;2023-08-08T12:11:29;99070.69;;;30.44;28.73
13241;BME280;6687;47.790;7.322;2023-08-08T12:14:00;99066.22;;;30.67;27.56
13241;BME280;6687;47.790;7.322;2023-08-08T12:16:28;99072.69;;;29.95;27.32
13241;BME280;6687;47.790;7.322;2023-08-08T12:18:55;99066.81;;;30.48;28.41
13241;BME280;6687;47.790;7.322;2023-08-08T12:21:21;99069.13;;;29.59;29.46
13241;BME280;6687;47.790;7.322;2023-08-08T12:23:48;99066.94;;;29.29;28.41
13241;BME280;6687;47.790;7.322;2023-08-08T12:26:15;99071.28;;;29.30;28.97
13241;BME280;6687;47.790;7.322;2023-08-08T12:28:41;99067.75;;;30.24;30.15
13241;BME280;6687;47.790;7.322;2023-08-08T12:31:10;99066.19;;;29.86;29.20
13241;BME280;6687;47.790;7.322;2023-08-08T12:33:36;99068.59;;;29.78;31.58
13241;BME280;6687;47.790;7.322;2023-08-08T12:36:03;99064.91;;;29.68;30.41
13241;BME280;6687;47.790;7.322;2023-08-08T12:38:30;99062.81;;;29.36;29.44
13241;BME280;6687;47.790;7.322;2023-08-08T12:40:57;99056.94;;;29.20;29.41
13241;BME280;6687;47.790;7.322;2023-08-08T12:43:23;99055.63;;;29.49;28.46
13241;BME280;6687;47.790;7.322;2023-08-08T12:45:50;99061.63;;;29.88;31.30
13241;BME280;6687;47.790;7.322;2023-08-08T12:48:18;99060.44;;;30.15;31.86
13241;BME280;6687;47.790;7.322;2023-08-08T12:50:45;99065.63;;;29.70;28.64
13241;BME280;6687;47.790;7.322;2023-08-08T12:53:12;99056.00;;;29.80;28.27
13241;BME280;6687;47.790;7.322;2023-08-08T12:55:39;99054.53;;;29.28;28.43
13241;BME280;6687;47.790;7.322;2023-08-08T12:58:05;99063.53;;;29.86;28.82
13241;BME280;6687;47.790;7.322;2023-08-08T13:00:32;99062.69;;;30.44;31.13
13241;BME280;6687;47.790;7.322;2023-08-08T13:02:59;99058.56;;;30.40;31.46
13241;BME280;6687;47.790;7.322;2023-08-08T13:05:27;99058.44;;;30.41;29.69
13241;BME280;6687;47.790;7.322;2023-08-08T13:07:53;99058.44;;;30.41;30.67
13241;BME280;6687;47.790;7.322;2023-08-08T13:10:20;99051.38;;;30.74;31.01
13241;BME280;6687;47.790;7.322;2023-08-08T13:12:47;99063.38;;;30.23;32.50
13241;BME280;6687;47.790;7.322;2023-08-08T13:15:14;99058.72;;;30.14;31.50
13241;BME280;6687;47.790;7.322;2023-08-08T13:17:41;99053.94;;;30.42;30.60
13241;BME280;6687;47.790;7.322;2023-08-08T13:20:09;99046.88;;;30.63;31.04
13241;BME280;6687;47.790;7.322;2023-08-08T13:22:37;99040.56;;;30.64;29.73
13241;BME280;6687;47.790;7.322;2023-08-08T13:25:05;99041.78;;;30.60;31.97
13241;BME280;6687;47.790;7.322;2023-08-08T13:27:32;99040.53;;;30.76;29.21
13241;BME280;6687;47.790;7.322;2023-08-08T13:29:59;99049.31;;;30.55;31.67
13241;BME280;6687;47.790;7.322;2023-08-08T13:32:26;99045.06;;;30.64;27.42
13241;BME280;6687;47.790;7.322;2023-08-08T13:34:52;99042.28;;;30.43;25.88
13241;BME280;6687;47.790;7.322;2023-08-08T13:37:20;99039.06;;;30.15;26.54
13241;BME280;6687;47.790;7.322;2023-08-08T13:39:48;99047.63;;;30.43;27.29
13241;BME280;6687;47.790;7.322;2023-08-08T13:42:15;99039.13;;;30.60;26.85
13241;BME280;6687;47.790;7.322;2023-08-08T13:44:42;99035.94;;;31.00;26.39
13241;BME280;6687;47.790;7.322;2023-08-08T13:47:10;99040.53;;;30.87;28.71
13241;BME280;6687;47.790;7.322;2023-08-08T13:49:37;99046.84;;;31.08;29.06
13241;BME280;6687;47.790;7.322;2023-08-08T13:52:04;99035.94;;;31.00;29.54
13241;BME280;6687;47.790;7.322;2023-08-08T13:54:31;99028.56;;;31.13;26.29
13241;BME280;6687;47.790;7.322;2023-08-08T13:56:59;99027.00;;;31.43;28.67
13241;BME280;6687;47.790;7.322;2023-08-08T13:59:26;99028.03;;;31.31;29.99
13241;BME280;6687;47.790;7.322;2023-08-08T14:01:53;99031.69;;;31.30;29.31
13241;BME280;6687;47.790;7.322;2023-08-08T14:04:19;99028.38;;;30.83;25.24
13241;BME280;6687;47.790;7.322;2023-08-08T14:06:46;99024.63;;;31.29;24.88
13241;BME280;6687;47.790;7.322;2023-08-08T14:09:13;99019.47;;;31.05;25.10
13241;BME280;6687;47.790;7.322;2023-08-08T14:11:39;99018.97;;;31.11;25.36
13241;BME280;6687;47.790;7.322;2023-08-08T14:14:07;99010.09;;;31.43;24.87
13241;BME280;6687;47.790;7.322;2023-08-08T14:16:34;99014.13;;;31.48;25.13
13241;BME280;6687;47.790;7.322;2023-08-08T14:19:01;99017.38;;;31.73;28.20
13241;BME280;6687;47.790;7.322;2023-08-08T14:21:28;99003.84;;;31.75;25.24
13241;BME280;6687;47.790;7.322;2023-08-08T14:23:54;99005.66;;;31.95;28.92
13241;BME280;6687;47.790;7.322;2023-08-08T14:26:21;99010.13;;;31.85;28.94
13241;BME280;6687;47.790;7.322;2023-08-08T14:28:48;99001.72;;;31.89;29.53
13241;BME280;6687;47.790;7.322;2023-08-08T14:31:16;99003.25;;;31.71;29.64
13241;BME280;6687;47.790;7.322;2023-08-08T14:33:42;99004.44;;;32.20;27.69
13241;BME280;6687;47.790;7.322;2023-08-08T14:36:09;99001.31;;;31.73;25.98
13241;BME280;6687;47.790;7.322;2023-08-08T14:38:36;99015.94;;;31.69;25.14
13241;BME280;6687;47.790;7.322;2023-08-08T14:41:03;99002.88;;;31.97;28.15
13241;BME280;6687;47.790;7.322;2023-08-08T14:43:30;99010.00;;;31.33;24.00
13241;BME280;6687;47.790;7.322;2023-08-08T14:45:57;99015.28;;;31.23;26.80
13241;BME280;6687;47.790;7.322;2023-08-08T14:48:25;99021.44;;;31.35;24.78
13241;BME280;6687;47.790;7.322;2023-08-08T14:50:52;99023.03;;;30.94;24.19
13241;BME280;6687;47.790;7.322;2023-08-08T14:53:19;99021.44;;;31.88;24.67
13241;BME280;6687;47.790;7.322;2023-08-08T14:55:45;99019.47;;;31.90;26.31
13241;BME280;6687;47.790;7.322;2023-08-08T14:58:13;99019.69;;;32.20;24.87
13241;BME280;6687;47.790;7.322;2023-08-08T15:00:40;99019.00;;;32.27;26.36
13241;BME280;6687;47.790;7.322;2023-08-08T15:03:07;99017.13;;;32.18;28.08
13241;BME280;6687;47.790;7.322;2023-08-08T15:05:35;99011.78;;;31.11;23.97
13241;BME280;6687;47.790;7.322;2023-08-08T15:08:03;99013.91;;;31.29;23.95
13241;BME280;6687;47.790;7.322;2023-08-08T15:10:29;99010.09;;;31.10;25.34
13241;BME280;6687;47.790;7.322;2023-08-08T15:12:56;99014.44;;;31.76;24.15
13241;BME280;6687;47.790;7.322;2023-08-08T15:15:23;99015.22;;;31.67;24.10
13241;BME280;6687;47.790;7.322;2023-08-08T15:17:51;99010.16;;;30.77;24.22
13241;BME280;6687;47.790;7.322;2023-08-08T15:20:18;99003.78;;;32.07;26.41
13241;BME280;6687;47.790;7.322;2023-08-08T15:22:46;99014.31;;;31.57;24.32
13241;BME280;6687;47.790;7.322;2023-08-08T15:25:13;99008.50;;;31.51;23.92
13241;BME280;6687;47.790;7.322;2023-08-08T15:27:39;99028.50;;;30.25;25.29
13241;BME280;6687;47.790;7.322;2023-08-08T15:30:07;99024.91;;;31.26;24.07
13241;BME280;6687;47.790;7.322;2023-08-08T15:32:34;99012.09;;;30.86;24.53
13241;BME280;6687;47.790;7.322;2023-08-08T15:35:00;99010.00;;;31.33;25.48
13241;BME280;6687;47.790;7.322;2023-08-08T15:37:27;99013.69;;;31.32;27.02
13241;BME280;6687;47.790;7.322;2023-08-08T15:39:55;98996.59;;;31.12;24.47
13241;BME280;6687;47.790;7.322;2023-08-08T15:42:24;99000.41;;;30.98;25.25
13241;BME280;6687;47.790;7.322;2023-08-08T15:44:50;98998.88;;;31.49;27.16
13241;BME280;6687;47.790;7.322;2023-08-08T15:47:17;99005.94;;;30.40;25.40
13241;BME280;6687;47.790;7.322;2023-08-08T15:49:44;99010.09;;;29.75;26.39
13241;BME280;6687;47.790;7.322;2023-08-08T15:52:10;99015.97;;;30.03;26.62
13241;BME280;6687;47.790;7.322;2023-08-08T15:54:37;99017.41;;;29.49;27.39
13241;BME280;6687;47.790;7.322;2023-08-08T15:57:05;99017.13;;;29.76;26.58
13241;BME280;6687;47.790;7.322;2023-08-08T15:59:32;99016.97;;;29.42;26.83
13241;BME280;6687;47.790;7.322;2023-08-08T16:01:59;99014.72;;;29.49;27.21
13241;BME280;6687;47.790;7.322;2023-08-08T16:04:25;99011.66;;;28.57;28.37
13241;BME280;6687;47.790;7.322;2023-08-08T16:06:52;99016.25;;;28.04;28.78
13241;BME280;6687;47.790;7.322;2023-08-08T16:09:19;99010.41;;;28.74;28.59
13241;BME280;6687;47.790;7.322;2023-08-08T16:11:45;99010.03;;;28.42;28.62
13241;BME280;6687;47.790;7.322;2023-08-08T16:14:13;99008.88;;;28.46;29.61
13241;BME280;6687;47.790;7.322;2023-08-08T16:16:40;99009.28;;;28.52;30.24
13241;BME280;6687;47.790;7.322;2023-08-08T16:19:07;99008.47;;;28.13;29.60
13241;BME280;6687;47.790;7.322;2023-08-08T16:21:33;99008.88;;;28.20;29.30
13241;BME280;6687;47.790;7.322;2023-08-08T16:24:00;99003.44;;;28.09;29.61
13241;BME280;6687;47.790;7.322;2023-08-08T16:26:28;99008.63;;;28.49;29.42
13241;BME280;6687;47.790;7.322;2023-08-08T16:28:55;99004.81;;;28.53;29.70
13241;BME280;6687;47.790;7.322;2023-08-08T16:31:23;99009.88;;;28.82;29.23
13241;BME280;6687;47.790;7.322;2023-08-08T16:33:49;99013.75;;;28.39;29.42
13241;BME280;6687;47.790;7.322;2023-08-08T16:36:16;99006.00;;;28.36;29.53
13241;BME280;6687;47.790;7.322;2023-08-08T16:38:43;99009.72;;;28.59;29.48
13241;BME280;6687;47.790;7.322;2023-08-08T16:41:09;99003.88;;;28.91;29.94
13241;BME280;6687;47.790;7.322;2023-08-08T16:43:38;99005.03;;;28.24;29.49
13241;BME280;6687;47.790;7.322;2023-08-08T16:46:05;99016.00;;;28.32;29.78
13241;BME280;6687;47.790;7.322;2023-08-08T16:48:33;99023.38;;;28.42;29.27
13241;BME280;6687;47.790;7.322;2023-08-08T16:51:01;99013.66;;;28.90;29.50
13241;BME280;6687;47.790;7.322;2023-08-08T16:53:28;99013.72;;;29.39;29.82
13241;BME280;6687;47.790;7.322;2023-08-08T16:55:56;99012.06;;;28.51;29.10
13241;BME280;6687;47.790;7.322;2023-08-08T16:58:25;99004.56;;;28.69;28.94
13241;BME280;6687;47.790;7.322;2023-08-08T17:00:52;99006.97;;;29.22;30.48
13241;BME280;6687;47.790;7.322;2023-08-08T17:03:20;99010.16;;;29.27;29.67
13241;BME280;6687;47.790;7.322;2023-08-08T17:05:48;99010.00;;;29.28;30.70
13241;BME280;6687;47.790;7.322;2023-08-08T17:08:15;99006.94;;;28.61;29.06
13241;BME280;6687;47.790;7.322;2023-08-08T17:10:43;99006.66;;;28.89;29.87
13241;BME280;6687;47.790;7.322;2023-08-08T17:13:10;99006.34;;;28.06;29.84
13241;BME280;6687;47.790;7.322;2023-08-08T17:15:38;99018.03;;;28.29;30.34
13241;BME280;6687;47.790;7.322;2023-08-08T17:18:04;99009.00;;;28.06;31.84
13241;BME280;6687;47.790;7.322;2023-08-08T17:20:32;99017.44;;;28.00;32.26
13241;BME280;6687;47.790;7.322;2023-08-08T17:23:00;99020.94;;;27.47;31.76
13241;BME280;6687;47.790;7.322;2023-08-08T17:25:26;99020.88;;;27.07;32.11
13241;BME280;6687;47.790;7.322;2023-08-08T17:27:53;99029.72;;;26.66;32.56
13241;BME280;6687;47.790;7.322;2023-08-08T17:30:20;99022.66;;;26.94;32.78
13241;BME280;6687;47.790;7.322;2023-08-08T17:32:47;99026.75;;;26.71;33.23
13241;BME280;6687;47.790;7.322;2023-08-08T17:35:14;99035.00;;;27.08;33.53
13241;BME280;6687;47.790;7.322;2023-08-08T17:37:40;99041.75;;;26.29;33.97
13241;BME280;6687;47.790;7.322;2023-08-08T17:40:09;99036.91;;;26.35;33.58
13241;BME280;6687;47.790;7.322;2023-08-08T17:42:36;99027.72;;;25.82;34.35
13241;BME280;6687;47.790;7.322;2023-08-08T17:45:04;99034.25;;;26.21;34.23
13241;BME280;6687;47.790;7.322;2023-08-08T17:47:30;99035.94;;;25.93;34.83
13241;BME280;6687;47.790;7.322;2023-08-08T17:49:58;99033.66;;;26.02;34.77
13241;BME280;6687;47.790;7.322;2023-08-08T17:52:25;99030.47;;;26.39;34.94
13241;BME280;6687;47.790;7.322;2023-08-08T17:54:52;99035.78;;;26.25;34.68
13241;BME280;6687;47.790;7.322;2023-08-08T17:57:20;99027.47;;;25.56;35.32
13241;BME280;6687;47.790;7.322;2023-08-08T17:59:46;99026.91;;;25.51;35.52
13241;BME280;6687;47.790;7.322;2023-08-08T18:02:13;99032.78;;;25.87;35.22
13241;BME280;6687;47.790;7.322;2023-08-08T18:04:40;99033.72;;;25.55;36.57
13241;BME280;6687;47.790;7.322;2023-08-08T18:07:07;99021.03;;;25.14;36.70
13241;BME280;6687;47.790;7.322;2023-08-08T18:09:34;99028.91;;;24.84;37.15
13241;BME280;6687;47.790;7.322;2023-08-08T18:12:01;99025.00;;;24.75;37.86
13241;BME280;6687;47.790;7.322;2023-08-08T18:14:30;99016.84;;;24.78;37.77
13241;BME280;6687;47.790;7.322;2023-08-08T18:16:58;99019.75;;;24.58;38.14
13241;BME280;6687;47.790;7.322;2023-08-08T18:19:25;99008.22;;;24.59;38.04
13241;BME280;6687;47.790;7.322;2023-08-08T18:21:52;99013.50;;;24.59;38.34
13241;BME280;6687;47.790;7.322;2023-08-08T18:24:20;99007.97;;;24.30;38.98
13241;BME280;6687;47.790;7.322;2023-08-08T18:26:47;99000.81;;;24.32;38.79
13241;BME280;6687;47.790;7.322;2023-08-08T18:29:14;98996.94;;;24.55;38.87
13241;BME280;6687;47.790;7.322;2023-08-08T18:31:43;98995.78;;;24.44;38.88
13241;BME280;6687;47.790;7.322;2023-08-08T18:34:10;99003.41;;;24.50;39.45